Terminal Aerodrome Forecast
Issued by NWS

Home | Current Version | Previous Version | Text Only | Print | Product List | Glossary On
Versions: 1 2 3 4 5 6 7 8 9 10 11 12 13 14 15 16 17 18 19 20 21
427
FTUS43 KEAX 281830 AAA
TAFSTJ
TAF AMD
KSTJ 281830Z 2819/2918 16008KT P6SM VCTS SCT050CB
      TEMPO 2819/2821 2SM -TSRA BKN025CB
     FM290000 14005KT P6SM SCT150=

USA.gov is the U.S. government's official web portal to all federal, state and local government web resources and services.